createdAt,value
2022-08-04T00:02:05.337Z,98510.41
2022-08-04T00:04:49.844Z,98499.91
2022-08-04T00:07:42.698Z,98508.38
2022-08-04T00:10:10.639Z,98493.75
2022-08-04T00:12:43.497Z,98505.25
2022-08-04T00:15:14.933Z,98510.22
2022-08-04T00:17:54.887Z,98508.19
2022-08-04T00:20:24.239Z,98493.13
2022-08-04T00:22:52.511Z,98483.44
2022-08-04T00:25:19.655Z,98492.94
2022-08-04T00:27:46.983Z,98487.34
2022-08-04T00:30:13.649Z,98468.59
2022-08-04T00:32:43.808Z,98487.56
2022-08-04T00:35:17.140Z,98487.97
2022-08-04T00:37:47.072Z,98482.63
2022-08-04T00:40:29.332Z,98489.22
2022-08-04T00:43:11.305Z,98483.44
2022-08-04T00:46:16.214Z,98473.72
2022-08-04T00:48:50.432Z,98465.28
2022-08-04T00:51:41.070Z,98464.06
2022-08-04T00:54:31.274Z,98464.47
2022-08-04T00:57:30.129Z,98459.50
2022-08-04T01:00:11.811Z,98465.69
2022-08-04T01:03:20.215Z,98456.22
2022-08-04T01:06:12.126Z,98456.41
2022-08-04T01:08:57.359Z,98450.78
2022-08-04T01:11:57.008Z,98436.56
2022-08-04T01:14:56.709Z,98401.09
2022-08-04T01:17:41.688Z,98438.44
2022-08-04T01:20:10.174Z,98437.19
2022-08-04T01:23:16.397Z,98437.19
2022-08-04T01:26:40.286Z,98426.88
2022-08-04T01:29:14.995Z,98439.66
2022-08-04T01:31:59.774Z,98435.94
2022-08-04T01:34:30.892Z,98431.38
2022-08-04T01:37:10.842Z,98429.72
2022-08-04T01:39:49.731Z,98381.84
2022-08-04T01:42:31.436Z,98412.56
2022-08-04T01:45:05.666Z,98402.69
2022-08-04T01:47:35.020Z,98403.91
2022-08-04T01:50:12.612Z,98399.41
2022-08-04T01:52:43.276Z,98409.88
2022-08-04T01:55:14.952Z,98403.75
2022-08-04T01:57:43.962Z,98412.00
2022-08-04T02:00:16.811Z,98420.22
2022-08-04T02:02:45.125Z,98423.13
2022-08-04T02:05:15.158Z,98413.00
2022-08-04T02:08:01.086Z,98420.03
2022-08-04T02:10:35.548Z,98419.41
2022-08-04T02:13:24.739Z,98413.66
2022-08-04T02:16:11.091Z,98425.59
2022-08-04T02:19:01.980Z,98373.78
2022-08-04T02:21:42.334Z,98400.41
2022-08-04T02:24:18.555Z,98392.16
2022-08-04T02:26:51.895Z,98395.06
2022-08-04T02:29:32.324Z,98404.50
2022-08-04T02:32:20.557Z,98404.91
2022-08-04T02:35:06.807Z,98401.59
2022-08-04T02:37:34.253Z,98396.25
2022-08-04T02:40:04.053Z,98380.16
2022-08-04T02:42:31.881Z,98383.06
2022-08-04T02:44:59.753Z,98376.00
2022-08-04T02:48:29.006Z,98375.59
2022-08-04T02:50:28.132Z,98369.41
2022-08-04T02:52:58.295Z,98356.78
2022-08-04T02:55:26.437Z,98367.97
2022-08-04T02:57:54.285Z,98371.69
2022-08-04T03:00:21.159Z,98357.69
2022-08-04T03:03:26.157Z,98372.13
2022-08-04T03:06:37.327Z,98373.56
2022-08-04T03:09:21.568Z,98374.38
2022-08-04T03:12:11.293Z,98368.75
2022-08-04T03:14:49.850Z,98363.66
2022-08-04T03:17:31.234Z,98354.38
2022-08-04T03:20:31.799Z,98342.97
2022-08-04T03:23:14.325Z,98343.97
2022-08-04T03:26:16.409Z,98343.75
2022-08-04T03:29:04.425Z,98348.31
2022-08-04T03:31:42.475Z,98354.50
2022-08-04T03:34:25.443Z,98363.56
2022-08-04T03:37:28.500Z,98366.03
2022-08-04T03:40:24.757Z,98357.63
2022-08-04T03:43:57.721Z,98356.97
2022-08-04T03:46:55.211Z,98360.84
2022-08-04T03:49:36.918Z,98349.16
2022-08-04T03:52:37.744Z,98352.81
2022-08-04T03:55:34.759Z,98342.13
2022-08-04T03:58:34.069Z,98350.16
2022-08-04T04:01:06.552Z,98337.63
2022-08-04T04:03:52.575Z,98344.19
2022-08-04T04:06:53.963Z,98346.03
2022-08-04T04:10:06.451Z,98343.31
2022-08-04T04:13:02.666Z,98356.97
2022-08-04T04:15:50.062Z,98369.75
2022-08-04T04:18:25.359Z,98380.22
2022-08-04T04:21:10.562Z,98370.53
2022-08-04T04:24:14.619Z,98367.75
2022-08-04T04:26:47.029Z,98375.78
2022-08-04T04:29:53.713Z,98380.56
2022-08-04T04:32:30.610Z,98376.25
2022-08-04T04:35:25.818Z,98378.25
2022-08-04T04:37:59.272Z,98377.25
2022-08-04T04:40:35.537Z,98386.81
2022-08-04T04:43:51.043Z,98400.44
2022-08-04T04:46:29.524Z,98383.09
2022-08-04T04:49:20.562Z,98394.22
2022-08-04T04:52:03.037Z,98389.31
2022-08-04T04:54:56.349Z,98390.34
2022-08-04T04:57:52.983Z,98369.53
2022-08-04T05:00:14.133Z,98396.94
2022-08-04T05:02:43.592Z,98413.25
2022-08-04T05:05:41.525Z,98414.91
2022-08-04T05:08:43.044Z,98401.13
2022-08-04T05:11:33.327Z,98398.88
2022-08-04T05:14:37.624Z,98451.69
2022-08-04T05:17:22.333Z,98465.69
2022-08-04T05:19:55.335Z,98462.41
2022-08-04T05:22:43.101Z,98468.81
2022-08-04T05:25:20.939Z,98482.22
2022-08-04T05:28:03.624Z,98471.47
2022-08-04T05:30:33.284Z,98480.97
2022-08-04T05:33:04.415Z,98483.84
2022-08-04T05:36:18.552Z,98495.41
2022-08-04T05:38:34.263Z,98521.78
2022-08-04T05:41:02.160Z,98514.75
2022-08-04T05:43:29.624Z,98527.72
2022-08-04T05:45:57.804Z,98539.00
2022-08-04T05:48:24.946Z,98521.63
2022-08-04T05:50:54.039Z,98542.22
2022-08-04T05:53:24.606Z,98552.13
2022-08-04T05:55:59.251Z,98549.63
2022-08-04T05:58:29.615Z,98551.63
2022-08-04T06:00:58.176Z,98575.41
2022-08-04T06:03:26.134Z,98623.56
2022-08-04T06:05:52.972Z,98645.72
2022-08-04T06:08:22.488Z,98656.53
2022-08-04T06:10:51.423Z,98649.31
2022-08-04T06:13:46.746Z,98683.22
2022-08-04T06:16:29.230Z,98705.00
2022-08-04T06:20:03.400Z,98701.81
2022-08-04T06:21:59.263Z,98717.78
2022-08-04T06:24:28.901Z,98735.09
2022-08-04T06:26:56.173Z,98729.00
2022-08-04T06:29:28.384Z,98739.50
2022-08-04T06:32:27.633Z,98745.84
2022-08-04T06:34:46.299Z,98741.34
2022-08-04T06:37:41.179Z,98738.72
2022-08-04T06:40:02.910Z,98776.88
2022-08-04T06:42:50.222Z,98767.78
2022-08-04T06:45:19.588Z,98798.25
2022-08-04T06:47:47.690Z,98796.84
2022-08-04T06:51:32.541Z,98783.31
2022-08-04T06:53:03.877Z,98787.91
2022-08-04T06:55:34.501Z,98791.97
2022-08-04T06:58:03.581Z,98803.84
2022-08-04T07:00:31.570Z,98787.56
2022-08-04T07:02:58.872Z,98785.28
2022-08-04T07:05:25.453Z,98810.69
2022-08-04T07:07:57.626Z,98800.63
2022-08-04T07:10:28.232Z,98806.53
2022-08-04T07:12:59.344Z,98808.13
2022-08-04T07:15:26.821Z,98793.38
2022-08-04T07:17:54.700Z,98792.88
2022-08-04T07:20:30.481Z,98806.84
2022-08-04T07:23:05.888Z,98809.75
2022-08-04T07:25:58.913Z,98805.41
2022-08-04T07:28:24.241Z,98806.88
2022-08-04T07:30:51.001Z,98770.94
2022-08-04T07:33:18.710Z,98806.88
2022-08-04T07:36:05.027Z,98816.75
2022-08-04T07:38:48.746Z,98800.75
2022-08-04T07:41:40.336Z,98817.47
2022-08-04T07:44:07.963Z,98800.63
2022-08-04T07:46:35.086Z,98808.84
2022-08-04T07:49:01.798Z,98802.81
2022-08-04T07:51:30.677Z,98795.25
2022-08-04T07:53:57.961Z,98796.03
2022-08-04T07:56:26.905Z,98800.75
2022-08-04T07:58:54.652Z,98795.84
2022-08-04T08:01:22.733Z,98797.03
2022-08-04T08:03:50.512Z,98797.34
2022-08-04T08:06:32.028Z,98793.63
2022-08-04T08:09:12.350Z,98791.81
2022-08-04T08:12:35.767Z,98780.19
2022-08-04T08:14:35.454Z,98782.59
2022-08-04T08:17:03.216Z,98787.13
2022-08-04T08:19:34.829Z,98786.78
2022-08-04T08:22:03.193Z,98768.47
2022-08-04T08:24:32.497Z,98756.53
2022-08-04T08:27:00.448Z,98768.47
2022-08-04T08:29:29.554Z,98771.00
2022-08-04T08:32:01.384Z,98764.25
2022-08-04T08:34:33.271Z,98779.06
2022-08-04T08:37:42.112Z,98769.00
2022-08-04T08:40:40.640Z,98761.31
2022-08-04T08:44:00.544Z,98777.53
2022-08-04T08:46:49.683Z,98769.06
2022-08-04T08:50:00.457Z,98764.78
2022-08-04T08:53:00.713Z,98762.75
2022-08-04T08:56:05.970Z,98774.88
2022-08-04T08:58:55.756Z,98750.94
2022-08-04T09:01:50.314Z,98770.25
2022-08-04T09:04:45.840Z,98765.72
2022-08-04T09:07:26.082Z,98767.66
2022-08-04T09:10:05.647Z,98754.47
2022-08-04T09:12:38.033Z,98774.31
2022-08-04T09:15:33.258Z,98764.94
2022-08-04T09:18:13.497Z,98768.16
2022-08-04T09:20:50.084Z,98771.63
2022-08-04T09:23:23.899Z,98770.50
2022-08-04T09:26:02.292Z,98756.59
2022-08-04T09:28:53.605Z,98752.47
2022-08-04T09:31:24.431Z,98742.88
2022-08-04T09:34:05.014Z,98752.09
2022-08-04T09:36:57.185Z,98749.66
2022-08-04T09:39:30.288Z,98747.56
2022-08-04T09:42:10.074Z,98754.69
2022-08-04T09:45:06.499Z,98754.41
2022-08-04T09:47:51.576Z,98757.94
2022-08-04T09:50:33.717Z,98754.72
2022-08-04T09:53:16.942Z,98739.84
2022-08-04T09:55:53.695Z,98745.38
2022-08-04T09:58:40.788Z,98754.16
2022-08-04T10:01:19.895Z,98725.97
2022-08-04T10:03:52.173Z,98753.56
2022-08-04T10:06:46.610Z,98753.66
2022-08-04T10:09:31.897Z,98746.91
2022-08-04T10:12:29.165Z,98724.59
2022-08-04T10:15:17.462Z,98745.81
2022-08-04T10:17:58.921Z,98733.84
2022-08-04T10:21:10.252Z,98729.78
2022-08-04T10:23:56.516Z,98731.91
2022-08-04T10:26:35.346Z,98718.75
2022-08-04T10:29:14.282Z,98727.53
2022-08-04T10:32:06.466Z,98724.13
2022-08-04T10:34:42.748Z,98722.31
2022-08-04T10:37:59.927Z,98703.13
2022-08-04T10:40:36.122Z,98724.78
2022-08-04T10:43:21.919Z,98717.69
2022-08-04T10:46:01.879Z,98714.38
2022-08-04T10:48:45.757Z,98714.47
2022-08-04T10:51:57.480Z,98719.16
2022-08-04T10:54:43.875Z,98696.47
2022-08-04T10:57:16.502Z,98709.97
2022-08-04T10:59:53.990Z,98696.50
2022-08-04T11:02:32.715Z,98700.22
2022-08-04T11:05:10.170Z,98685.16
2022-08-04T11:07:39.716Z,98700.41
2022-08-04T11:10:07.900Z,98694.25
2022-08-04T11:12:35.588Z,98701.25
2022-08-04T11:15:18.690Z,98694.81
2022-08-04T11:17:51.792Z,98682.13
2022-08-04T11:20:35.081Z,98706.00
2022-08-04T11:23:06.250Z,98690.22
2022-08-04T11:26:19.573Z,98689.44
2022-08-04T11:29:11.946Z,98685.44
2022-08-04T11:31:49.781Z,98688.22
2022-08-04T11:34:26.594Z,98684.00
2022-08-04T11:37:03.768Z,98694.22
2022-08-04T11:39:36.542Z,98691.94
2022-08-04T11:42:09.248Z,98688.50
2022-08-04T11:44:48.304Z,98674.72
2022-08-04T11:47:39.709Z,98682.59
2022-08-04T11:50:14.407Z,98686.59
2022-08-04T11:52:44.303Z,98691.94
2022-08-04T11:55:13.751Z,98678.97
2022-08-04T11:57:40.585Z,98662.13
2022-08-04T12:00:10.735Z,98671.19
2022-08-04T12:03:06.501Z,98679.47
2022-08-04T12:05:46.084Z,98641.41
2022-08-04T12:08:49.914Z,98671.25
2022-08-04T12:11:37.572Z,98671.53
2022-08-04T12:14:22.051Z,98665.31
2022-08-04T12:16:59.105Z,98671.22
2022-08-04T12:20:04.324Z,98645.72
2022-08-04T12:22:31.569Z,98660.06
2022-08-04T12:25:03.797Z,98642.53
2022-08-04T12:27:36.177Z,98652.78
2022-08-04T12:30:57.436Z,98672.63
2022-08-04T12:33:05.862Z,98651.88
2022-08-04T12:36:10.172Z,98655.69
2022-08-04T12:38:45.198Z,98626.69
2022-08-04T12:41:15.028Z,98636.63
2022-08-04T12:43:43.061Z,98605.41
2022-08-04T12:46:13.093Z,98661.56
2022-08-04T12:48:44.532Z,98641.88
2022-08-04T12:52:06.733Z,98648.09
2022-08-04T12:53:59.690Z,98612.03
2022-08-04T12:56:28.529Z,98625.19
2022-08-04T12:59:05.246Z,98627.44
2022-08-04T13:02:10.975Z,98628.91
2022-08-04T13:04:29.657Z,98637.41
2022-08-04T13:07:09.821Z,98633.88
2022-08-04T13:09:38.465Z,98633.00
2022-08-04T13:12:13.007Z,98639.22
2022-08-04T13:14:44.354Z,98627.00
2022-08-04T13:17:12.183Z,98610.41
2022-08-04T13:19:41.095Z,98627.97
2022-08-04T13:22:08.634Z,98607.34
2022-08-04T13:24:56.870Z,98594.81
2022-08-04T13:27:25.735Z,98612.34
2022-08-04T13:30:25.043Z,98615.41
2022-08-04T13:32:42.422Z,98623.56
2022-08-04T13:35:09.295Z,98623.56
2022-08-04T13:37:39.386Z,98612.72
2022-08-04T13:40:09.729Z,98614.78
2022-08-04T13:42:37.468Z,98605.03
2022-08-04T13:45:07.633Z,98610.28
2022-08-04T13:47:38.230Z,98585.97
2022-08-04T13:50:27.310Z,98613.53
2022-08-04T13:52:58.670Z,98608.78
2022-08-04T13:55:34.481Z,98585.94
2022-08-04T13:58:23.558Z,98592.53
2022-08-04T14:01:07.726Z,98600.94
2022-08-04T14:03:54.402Z,98598.66
2022-08-04T14:06:27.384Z,98598.09
2022-08-04T14:09:15.017Z,98598.06
2022-08-04T14:12:10.675Z,98596.38
2022-08-04T14:14:44.083Z,98584.94
2022-08-04T14:17:18.066Z,98579.69
2022-08-04T14:19:46.853Z,98572.63
2022-08-04T14:22:26.458Z,98573.50
2022-08-04T14:25:15.358Z,98517.97
2022-08-04T14:27:48.575Z,98547.50
2022-08-04T14:30:26.977Z,98573.53
2022-08-04T14:32:59.500Z,98562.53
2022-08-04T14:35:58.165Z,98563.31
2022-08-04T14:38:24.599Z,98560.69
2022-08-04T14:40:59.596Z,98550.41
2022-08-04T14:43:29.698Z,98545.84
2022-08-04T14:46:04.927Z,98556.06
2022-08-04T14:48:31.543Z,98551.53
2022-08-04T14:50:58.113Z,98544.94
2022-08-04T14:53:31.671Z,98528.44
2022-08-04T14:56:01.282Z,98542.84
2022-08-04T14:58:39.491Z,98541.88
2022-08-04T15:01:12.599Z,98533.00
2022-08-04T15:03:50.820Z,98532.91
2022-08-04T15:06:22.670Z,98526.47
2022-08-04T15:08:54.485Z,98537.41
2022-08-04T15:11:23.269Z,98526.72
2022-08-04T15:13:53.772Z,98527.13
2022-08-04T15:16:24.645Z,98533.81
2022-08-04T15:18:52.744Z,98534.53
2022-08-04T15:21:22.425Z,98534.84
2022-08-04T15:23:50.893Z,98512.41
2022-08-04T15:26:28.713Z,98516.53
2022-08-04T15:29:02.079Z,98523.88
2022-08-04T15:32:07.954Z,98516.09
2022-08-04T15:34:16.314Z,98502.09
2022-08-04T15:36:56.957Z,98518.19
2022-08-04T15:39:51.440Z,98516.72
2022-08-04T15:42:32.323Z,98507.09
2022-08-04T15:44:58.848Z,98511.75
2022-08-04T15:47:26.085Z,98498.81
2022-08-04T15:50:12.440Z,98501.44
2022-08-04T15:53:01.386Z,98466.31
2022-08-04T15:55:40.011Z,98482.25
2022-08-04T15:58:09.395Z,98502.50
2022-08-04T16:00:48.086Z,98500.84
2022-08-04T16:03:59.264Z,98495.88
2022-08-04T16:06:22.310Z,98490.72
2022-08-04T16:08:57.214Z,98458.19
2022-08-04T16:11:32.602Z,98486.72
2022-08-04T16:13:59.518Z,98486.53
2022-08-04T16:16:51.617Z,98471.00
2022-08-04T16:19:35.396Z,98487.81
2022-08-04T16:22:04.096Z,98497.00
2022-08-04T16:24:40.789Z,98482.13
2022-08-04T16:27:08.948Z,98478.09
2022-08-04T16:29:38.483Z,98478.44
2022-08-04T16:32:04.740Z,98482.97
2022-08-04T16:34:48.231Z,98482.25
2022-08-04T16:37:18.013Z,98479.63
2022-08-04T16:39:51.042Z,98478.06
2022-08-04T16:42:27.288Z,98476.69
2022-08-04T16:45:02.157Z,98479.78
2022-08-04T16:47:46.999Z,98466.88
2022-08-04T16:50:17.956Z,98470.91
2022-08-04T16:52:45.809Z,98472.56
2022-08-04T16:55:15.086Z,98480.03
2022-08-04T16:57:41.560Z,98463.63
2022-08-04T17:00:09.440Z,98468.63
2022-08-04T17:02:36.218Z,98456.63
2022-08-04T17:05:06.811Z,98475.13
2022-08-04T17:08:28.086Z,98475.41
2022-08-04T17:10:45.346Z,98470.19
2022-08-04T17:14:03.190Z,98466.00
2022-08-04T17:16:23.557Z,98451.63
2022-08-04T17:18:55.917Z,98468.06
2022-08-04T17:21:26.086Z,98463.59
2022-08-04T17:24:12.936Z,98461.00
2022-08-04T17:26:45.342Z,98463.88
2022-08-04T17:29:43.942Z,98459.16
2022-08-04T17:32:21.359Z,98457.66
2022-08-04T17:34:52.018Z,98462.78
2022-08-04T17:37:37.919Z,98463.69
2022-08-04T17:40:12.999Z,98458.44
2022-08-04T17:42:41.518Z,98463.69
2022-08-04T17:51:17.945Z,98463.91
2022-08-04T17:54:02.276Z,98460.66
2022-08-04T17:56:51.813Z,98473.00
2022-08-04T17:59:55.938Z,98470.38
2022-08-04T18:02:12.033Z,98467.38
2022-08-04T18:05:06.197Z,98474.22
2022-08-04T18:08:38.137Z,98474.63
2022-08-04T18:10:44.460Z,98472.47
2022-08-04T18:13:22.285Z,98475.53
2022-08-04T18:15:51.169Z,98478.78
2022-08-04T18:21:06.822Z,98463.84
2022-08-04T18:23:33.745Z,98455.09
2022-08-04T18:26:06.357Z,98474.13
2022-08-04T18:28:36.253Z,98467.00
2022-08-04T18:31:03.412Z,98475.44
2022-08-04T18:33:40.778Z,98475.78
2022-08-04T18:36:33.573Z,98461.38
2022-08-04T18:39:12.551Z,98488.22
2022-08-04T18:42:02.376Z,98493.16
2022-08-04T18:44:29.314Z,98474.84
2022-08-04T18:46:56.855Z,98483.31
2022-08-04T18:50:58.456Z,98500.72
2022-08-04T18:52:14.914Z,98504.91
2022-08-04T18:54:42.072Z,98504.66
2022-08-04T18:57:32.447Z,98506.03
2022-08-04T18:59:56.585Z,98504.00
2022-08-04T19:02:23.234Z,98490.94
2022-08-04T19:04:52.923Z,98509.09
2022-08-04T19:07:29.101Z,98500.69
2022-08-04T19:09:57.547Z,98506.13
2022-08-04T19:12:26.803Z,98517.84
2022-08-04T19:14:55.407Z,98524.41
2022-08-04T19:17:52.648Z,98527.66
2022-08-04T19:20:24.190Z,98532.34
2022-08-04T19:24:10.509Z,98524.97
2022-08-04T19:26:03.750Z,98534.00
2022-08-04T19:28:28.157Z,98513.19
2022-08-04T19:30:57.954Z,98531.91
2022-08-04T19:33:28.529Z,98499.38
2022-08-04T19:36:14.034Z,98534.78
2022-08-04T19:38:44.866Z,98539.97
2022-08-04T19:41:14.309Z,98542.63
2022-08-04T19:43:43.984Z,98540.84
2022-08-04T19:46:10.781Z,98546.84
2022-08-04T19:48:38.961Z,98535.38
2022-08-04T19:51:05.913Z,98548.34
2022-08-04T19:53:37.252Z,98547.19
2022-08-04T19:56:04.888Z,98549.91
2022-08-04T19:58:31.327Z,98526.78
2022-08-04T20:00:58.075Z,98543.84
2022-08-04T20:04:08.194Z,98527.66
2022-08-04T20:06:11.663Z,98542.38
2022-08-04T20:08:39.095Z,98543.75
2022-08-04T20:11:15.239Z,98553.25
2022-08-04T20:13:42.755Z,98551.91
2022-08-04T20:16:30.369Z,98535.94
2022-08-04T20:19:00.845Z,98538.06
2022-08-04T20:21:55.544Z,98556.41
2022-08-04T20:24:40.781Z,98548.38
2022-08-04T20:27:07.730Z,98555.13
2022-08-04T20:29:43.503Z,98557.84
2022-08-04T20:32:15.382Z,98557.59
2022-08-04T20:34:41.996Z,98561.78
2022-08-04T20:37:10.030Z,98563.53
2022-08-04T20:39:37.389Z,98576.38
2022-08-04T20:42:04.243Z,98578.38
2022-08-04T20:44:30.627Z,98576.91
2022-08-04T20:46:57.069Z,98564.94
2022-08-04T20:49:35.363Z,98563.31
2022-08-04T20:52:13.369Z,98550.59
2022-08-04T20:54:48.686Z,98581.84
2022-08-04T20:57:16.560Z,98578.75
2022-08-04T20:59:43.779Z,98581.84
2022-08-04T21:02:16.877Z,98588.94
2022-08-04T21:04:48.456Z,98588.75
2022-08-04T21:07:16.771Z,98594.81
2022-08-04T21:09:50.517Z,98585.41
2022-08-04T21:12:28.586Z,98601.41
2022-08-04T21:14:57.343Z,98606.84
2022-08-04T21:17:25.427Z,98603.78
2022-08-04T21:20:13.728Z,98609.19
2022-08-04T21:22:41.991Z,98608.31
2022-08-04T21:25:15.984Z,98612.59
2022-08-04T21:27:44.120Z,98606.69
2022-08-04T21:30:25.338Z,98599.81
2022-08-04T21:32:52.703Z,98603.56
2022-08-04T21:35:19.194Z,98600.78
2022-08-04T21:37:57.706Z,98565.69
2022-08-04T21:40:30.762Z,98592.44
2022-08-04T21:43:02.888Z,98603.06
2022-08-04T21:45:36.319Z,98599.25
2022-08-04T21:48:02.866Z,98592.00
2022-08-04T21:50:31.104Z,98581.22
2022-08-04T21:52:57.610Z,98585.34
2022-08-04T21:55:25.685Z,98581.00
2022-08-04T21:58:13.365Z,98563.66
2022-08-04T22:00:43.494Z,98574.50
2022-08-04T22:03:28.647Z,98557.25
2022-08-04T22:06:01.956Z,98558.41
2022-08-04T22:08:29.622Z,98558.25
2022-08-04T22:10:57.820Z,98554.03
2022-08-04T22:13:24.629Z,98541.25
2022-08-04T22:16:10.989Z,98526.75
2022-08-04T22:18:37.516Z,98501.53
2022-08-04T22:23:52.447Z,98541.63
2022-08-04T22:26:26.600Z,98525.88
2022-08-04T22:28:53.827Z,98520.59
2022-08-04T22:31:24.361Z,98527.00
2022-08-04T22:33:55.276Z,98493.44
2022-08-04T22:36:24.674Z,98501.03
2022-08-04T22:39:00.283Z,98497.53
2022-08-04T22:42:03.038Z,98488.13
2022-08-04T22:44:20.769Z,98481.69
2022-08-04T22:46:47.375Z,98482.25
2022-08-04T22:49:14.540Z,98475.00
2022-08-04T22:51:41.149Z,98470.78
2022-08-04T22:54:17.309Z,98462.09
2022-08-04T22:56:45.598Z,98459.72
2022-08-04T22:59:12.260Z,98446.66
2022-08-04T23:01:59.584Z,98450.19
2022-08-04T23:04:26.382Z,98449.41
2022-08-04T23:06:54.328Z,98419.41
2022-08-04T23:09:21.325Z,98405.88
2022-08-04T23:11:53.967Z,98419.50
2022-08-04T23:14:29.403Z,98406.84
2022-08-04T23:16:56.640Z,98382.31
2022-08-04T23:19:24.666Z,98411.97
2022-08-04T23:22:01.939Z,98421.50
2022-08-04T23:24:29.835Z,98431.94
2022-08-04T23:26:58.641Z,98425.09
2022-08-04T23:29:27.463Z,98424.28
2022-08-04T23:31:59.629Z,98436.25
2022-08-04T23:34:26.613Z,98412.81
2022-08-04T23:36:56.179Z,98420.53
2022-08-04T23:39:25.647Z,98411.97
2022-08-04T23:42:15.094Z,98396.41
2022-08-04T23:44:48.582Z,98386.31
2022-08-04T23:48:14.539Z,98377.28
2022-08-04T23:50:01.564Z,98382.53
2022-08-04T23:52:30.993Z,98360.69
2022-08-04T23:54:59.059Z,98357.44
2022-08-04T23:57:30.935Z,98365.63
2022-08-04T23:59:58.365Z,98366.00
